Berlin-Schönefeld International Airport EDDB

Flugplatz Daten

Name: Berlin-Schönefeld International Airport

Ident: EDDB

Lat: 52,38000107

Long: 13,52250004

Platzhöhe: 157 ft

IataCode: SXF

City: Berlin

Metar

2022/08/10 20:20
EDDB 102020Z AUTO 04006KT CAVOK 22/10 Q1024 NOSIG

Taf

2022/08/10 18:27
TAF EDDB 101700Z 1018/1118 06005KT CAVOK
Gewünschte Webcam nicht vorhanden? Dann fügen Sie eine hinzu. Sie wird dann so schnell wie möglich freigeschaltet
Url: Title: